createdAt,value
2022-11-19T00:01:26.444Z,21.20
2022-11-19T00:03:54.065Z,20.60
2022-11-19T00:06:26.747Z,20.48
2022-11-19T00:08:54.118Z,22.40
2022-11-19T00:11:55.154Z,21.15
2022-11-19T00:14:26.039Z,20.98
2022-11-19T00:16:52.921Z,22.10
2022-11-19T00:19:20.142Z,21.25
2022-11-19T00:21:47.185Z,22.10
2022-11-19T00:24:14.345Z,22.20
2022-11-19T00:26:41.197Z,23.60
2022-11-19T00:29:16.851Z,21.67
2022-11-19T00:31:46.082Z,22.55
2022-11-19T00:34:13.219Z,22.13
2022-11-19T00:36:40.162Z,23.20
2022-11-19T00:39:07.129Z,22.73
2022-11-19T00:41:34.036Z,22.67
2022-11-19T00:44:00.846Z,22.25
2022-11-19T00:46:30.033Z,23.08
2022-11-19T00:48:59.148Z,21.70
2022-11-19T00:51:29.156Z,22.30
2022-11-19T00:53:56.554Z,23.08
2022-11-19T00:56:25.265Z,23.30
2022-11-19T00:58:52.350Z,23.85
2022-11-19T01:01:21.551Z,22.85
2022-11-19T01:03:49.057Z,24.30
2022-11-19T01:06:19.406Z,23.10
2022-11-19T01:08:49.932Z,22.48
2022-11-19T01:11:21.327Z,22.27
2022-11-19T01:13:49.062Z,24.27
2022-11-19T01:16:32.673Z,24.00
2022-11-19T01:18:59.655Z,22.65
2022-11-19T01:21:29.471Z,25.25
2022-11-19T01:23:56.969Z,24.60
2022-11-19T01:26:24.320Z,23.20
2022-11-19T01:28:51.350Z,24.25
2022-11-19T01:31:26.193Z,23.33
2022-11-19T01:33:53.608Z,24.58
2022-11-19T01:36:23.104Z,23.73
2022-11-19T01:38:51.228Z,24.15
2022-11-19T01:41:19.684Z,22.75
2022-11-19T01:43:51.952Z,24.13
2022-11-19T01:46:22.844Z,25.80
2022-11-19T01:49:00.568Z,25.83
2022-11-19T01:51:29.449Z,24.83
2022-11-19T01:54:00.517Z,24.52
2022-11-19T01:56:28.283Z,22.65
2022-11-19T01:59:04.092Z,24.05
2022-11-19T02:01:32.195Z,24.23
2022-11-19T02:04:01.421Z,25.88
2022-11-19T02:06:33.560Z,23.83
2022-11-19T02:09:00.388Z,25.25
2022-11-19T02:11:29.997Z,25.60
2022-11-19T02:14:24.413Z,24.80
2022-11-19T02:16:56.979Z,23.20
2022-11-19T02:19:35.683Z,25.30
2022-11-19T02:22:20.553Z,26.52
2022-11-19T02:25:19.398Z,23.95
2022-11-19T02:28:15.408Z,24.15
2022-11-19T02:31:18.525Z,27.13
2022-11-19T02:34:23.630Z,23.90
2022-11-19T02:37:17.273Z,25.15
2022-11-19T02:39:59.258Z,24.73
2022-11-19T02:42:30.486Z,25.30
2022-11-19T02:45:05.630Z,23.92
2022-11-19T02:47:48.114Z,23.48
2022-11-19T02:50:32.322Z,22.38
2022-11-19T02:52:59.550Z,23.77
2022-11-19T02:55:27.692Z,24.30
2022-11-19T02:58:36.271Z,23.98
2022-11-19T03:01:24.963Z,26.48
2022-11-19T03:04:12.180Z,25.55
2022-11-19T03:06:40.331Z,22.85
2022-11-19T03:09:07.186Z,23.88
2022-11-19T03:11:34.175Z,25.17
2022-11-19T03:14:39.436Z,22.38
2022-11-19T03:17:26.117Z,23.95
2022-11-19T03:20:31.446Z,25.52
2022-11-19T03:23:18.487Z,25.02
2022-11-19T03:25:55.219Z,23.50
2022-11-19T03:28:27.457Z,23.13
2022-11-19T03:30:58.597Z,23.27
2022-11-19T03:33:33.992Z,25.80
2022-11-19T03:36:08.187Z,23.85
2022-11-19T03:38:50.217Z,24.08
2022-11-19T03:41:20.223Z,23.55
2022-11-19T03:43:53.513Z,24.08
2022-11-19T03:48:51.756Z,23.98
2022-11-19T03:51:29.092Z,23.50
2022-11-19T03:53:56.062Z,24.10
2022-11-19T03:56:26.228Z,24.15
2022-11-19T03:58:54.282Z,23.83
2022-11-19T04:01:21.786Z,23.95
2022-11-19T04:04:07.153Z,25.00
2022-11-19T04:06:33.993Z,24.83
2022-11-19T04:09:00.790Z,24.48
2022-11-19T04:13:53.268Z,24.40
2022-11-19T04:16:21.116Z,25.35
2022-11-19T04:18:47.925Z,25.25
2022-11-19T04:21:15.054Z,24.77
2022-11-19T04:23:41.941Z,26.25
2022-11-19T04:26:08.744Z,23.50
2022-11-19T04:28:35.526Z,24.25
2022-11-19T04:31:02.354Z,23.27
2022-11-19T04:33:29.175Z,23.48
2022-11-19T04:35:55.953Z,22.35
2022-11-19T04:38:22.762Z,22.50
2022-11-19T04:40:49.600Z,22.15
2022-11-19T04:43:16.358Z,22.63
2022-11-19T04:45:43.371Z,21.42
2022-11-19T04:48:10.146Z,22.10
2022-11-19T04:50:36.974Z,20.77
2022-11-19T04:53:03.919Z,21.40
2022-11-19T04:55:30.840Z,21.25
2022-11-19T04:57:57.608Z,21.20
2022-11-19T05:00:24.539Z,20.63
2022-11-19T05:02:51.293Z,21.23
2022-11-19T05:05:18.079Z,21.25
2022-11-19T05:07:46.575Z,20.08
2022-11-19T05:10:13.651Z,20.13
2022-11-19T05:12:40.469Z,19.35
2022-11-19T05:15:09.281Z,19.73
2022-11-19T05:17:36.202Z,18.73
2022-11-19T05:20:03.561Z,20.25
2022-11-19T05:22:30.545Z,19.50
2022-11-19T05:24:57.339Z,18.20
2022-11-19T05:27:25.054Z,19.63
2022-11-19T05:29:54.449Z,21.52
2022-11-19T05:32:21.344Z,19.83
2022-11-19T05:34:48.563Z,20.23
2022-11-19T05:37:15.459Z,21.40
2022-11-19T05:39:42.387Z,21.38
2022-11-19T05:42:10.255Z,20.85
2022-11-19T05:44:37.055Z,20.30
2022-11-19T05:47:03.843Z,20.63
2022-11-19T05:49:30.663Z,19.70
2022-11-19T05:51:57.493Z,19.98
2022-11-19T05:54:24.428Z,21.02
2022-11-19T05:56:52.367Z,20.02
2022-11-19T05:59:21.894Z,19.02
2022-11-19T06:01:48.952Z,21.65
2022-11-19T06:04:15.812Z,19.45
2022-11-19T06:06:42.689Z,20.85
2022-11-19T06:09:09.816Z,19.98
2022-11-19T06:11:48.414Z,18.73
2022-11-19T06:14:17.104Z,19.92
2022-11-19T06:16:44.569Z,18.85
2022-11-19T06:19:11.585Z,19.02
2022-11-19T06:21:38.342Z,18.65
2022-11-19T06:24:05.404Z,17.52
2022-11-19T06:26:32.152Z,19.85
2022-11-19T06:28:58.978Z,18.98
2022-11-19T06:31:25.857Z,18.05
2022-11-19T06:33:53.668Z,19.65
2022-11-19T06:36:21.055Z,18.40
2022-11-19T06:38:48.203Z,18.50
2022-11-19T06:41:15.434Z,19.40
2022-11-19T06:43:43.236Z,19.08
2022-11-19T06:46:11.619Z,18.83
2022-11-19T06:48:38.864Z,18.25
2022-11-19T06:51:06.484Z,19.40
2022-11-19T06:53:33.559Z,18.65
2022-11-19T06:56:02.473Z,18.52
2022-11-19T06:58:30.881Z,19.98
2022-11-19T07:00:58.088Z,17.50
2022-11-19T07:03:25.605Z,19.55
2022-11-19T07:05:57.916Z,17.30
2022-11-19T07:08:25.896Z,17.80
2022-11-19T07:10:52.704Z,18.90
2022-11-19T07:13:19.497Z,19.67
2022-11-19T07:15:46.326Z,18.27
2022-11-19T07:18:14.133Z,17.50
2022-11-19T07:20:41.557Z,18.33
2022-11-19T07:23:12.039Z,17.02
2022-11-19T07:25:38.896Z,16.55
2022-11-19T07:28:06.116Z,17.00
2022-11-19T07:30:34.293Z,16.90
2022-11-19T07:33:01.114Z,17.88
2022-11-19T07:35:28.037Z,18.77
2022-11-19T07:37:56.093Z,17.40
2022-11-19T07:40:22.914Z,17.83
2022-11-19T07:42:49.825Z,17.63
2022-11-19T07:45:20.500Z,17.75
2022-11-19T07:47:47.487Z,16.48
2022-11-19T07:50:14.706Z,17.00
2022-11-19T07:52:41.526Z,17.33
2022-11-19T07:55:08.793Z,18.98
2022-11-19T07:57:36.454Z,17.95
2022-11-19T08:00:04.517Z,16.92
2022-11-19T08:02:39.485Z,16.80
2022-11-19T08:05:06.483Z,17.58
2022-11-19T08:07:33.398Z,16.88
2022-11-19T08:10:00.193Z,17.10
2022-11-19T08:12:27.039Z,16.98
2022-11-19T08:14:53.764Z,15.55
2022-11-19T08:17:39.208Z,16.80
2022-11-19T08:20:06.498Z,15.85
2022-11-19T08:22:33.322Z,16.88
2022-11-19T08:25:00.135Z,16.80
2022-11-19T08:27:26.940Z,18.23
2022-11-19T08:29:53.741Z,17.35
2022-11-19T08:32:20.571Z,16.73
2022-11-19T08:34:47.478Z,17.52
2022-11-19T08:37:14.447Z,17.48
2022-11-19T08:39:41.649Z,17.45
2022-11-19T08:42:28.113Z,18.30
2022-11-19T08:44:55.903Z,15.98
2022-11-19T08:47:23.015Z,17.73
2022-11-19T08:49:49.826Z,16.48
2022-11-19T08:52:16.617Z,15.65
2022-11-19T08:54:43.390Z,17.05
2022-11-19T08:57:10.103Z,17.42
2022-11-19T08:59:36.881Z,16.13
2022-11-19T09:02:03.684Z,15.57
2022-11-19T09:04:30.481Z,16.48
2022-11-19T09:06:58.639Z,16.75
2022-11-19T09:09:25.537Z,16.17
2022-11-19T09:11:52.312Z,16.80
2022-11-19T09:14:19.403Z,16.85
2022-11-19T09:16:46.916Z,17.73
2022-11-19T09:19:13.845Z,16.05
2022-11-19T09:21:40.795Z,17.70
2022-11-19T09:24:07.860Z,15.63
2022-11-19T09:26:35.382Z,15.00
2022-11-19T09:29:02.861Z,15.63
2022-11-19T09:31:29.681Z,15.30
2022-11-19T09:33:56.910Z,13.80
2022-11-19T09:36:23.857Z,14.48
2022-11-19T09:38:50.626Z,14.95
2022-11-19T09:41:32.901Z,14.25
2022-11-19T09:44:12.824Z,14.88
2022-11-19T09:46:39.509Z,15.40
2022-11-19T09:49:18.470Z,13.40
2022-11-19T09:51:55.096Z,13.88
2022-11-19T09:54:22.801Z,14.38
2022-11-19T09:56:56.388Z,14.40
2022-11-19T09:59:41.618Z,13.95
2022-11-19T10:02:23.026Z,14.40
2022-11-19T10:04:51.603Z,13.23
2022-11-19T10:07:30.471Z,12.43
2022-11-19T10:10:18.005Z,11.88
2022-11-19T10:13:12.168Z,11.98
2022-11-19T10:16:03.202Z,12.30
2022-11-19T10:18:54.947Z,12.77
2022-11-19T10:21:27.633Z,12.00
2022-11-19T10:24:18.352Z,12.48
2022-11-19T10:27:01.093Z,12.98
2022-11-19T10:29:37.188Z,12.75
2022-11-19T10:32:25.479Z,12.90
2022-11-19T10:34:58.745Z,12.27
2022-11-19T10:37:34.479Z,12.80
2022-11-19T10:40:14.429Z,12.85
2022-11-19T10:42:49.143Z,13.48
2022-11-19T10:45:19.098Z,14.13
2022-11-19T10:48:10.429Z,14.05
2022-11-19T10:50:37.640Z,13.68
2022-11-19T10:53:29.918Z,12.40
2022-11-19T10:56:19.189Z,14.38
2022-11-19T10:58:58.030Z,12.90
2022-11-19T11:01:35.715Z,12.05
2022-11-19T11:04:11.594Z,12.05
2022-11-19T11:06:51.910Z,12.13
2022-11-19T11:09:31.974Z,12.52
2022-11-19T11:12:33.821Z,13.32
2022-11-19T11:15:16.942Z,13.32
2022-11-19T11:17:46.864Z,13.48
2022-11-19T11:20:20.472Z,12.30
2022-11-19T11:22:50.776Z,12.88
2022-11-19T11:25:27.704Z,12.50
2022-11-19T11:28:16.444Z,12.60
2022-11-19T11:31:04.794Z,13.15
2022-11-19T11:33:39.535Z,11.43
2022-11-19T11:36:10.272Z,12.02
2022-11-19T11:38:49.169Z,11.50
2022-11-19T11:44:35.677Z,12.75
2022-11-19T11:47:16.242Z,11.48
2022-11-19T11:49:45.582Z,11.35
2022-11-19T11:52:12.272Z,11.80
2022-11-19T11:55:15.204Z,11.27
2022-11-19T11:58:02.314Z,11.00
2022-11-19T12:00:29.070Z,11.65
2022-11-19T12:03:09.048Z,12.23
2022-11-19T12:06:02.675Z,11.93
2022-11-19T12:08:56.481Z,11.57
2022-11-19T12:11:58.116Z,11.52
2022-11-19T12:14:41.596Z,11.82
2022-11-19T12:17:09.312Z,11.40
2022-11-19T12:19:51.637Z,12.25
2022-11-19T12:22:24.053Z,11.02
2022-11-19T12:25:07.871Z,11.57
2022-11-19T12:27:43.734Z,11.65
2022-11-19T12:30:21.454Z,11.00
2022-11-19T12:32:51.277Z,11.85
2022-11-19T12:35:27.001Z,11.65
2022-11-19T12:38:21.754Z,11.98
2022-11-19T12:41:18.325Z,10.77
2022-11-19T12:43:57.149Z,13.30
2022-11-19T12:46:53.806Z,12.02
2022-11-19T12:49:39.247Z,11.95
2022-11-19T12:52:11.936Z,13.18
2022-11-19T12:54:57.022Z,13.52
2022-11-19T12:57:30.418Z,13.80
2022-11-19T13:00:06.107Z,13.25
2022-11-19T13:02:41.797Z,13.68
2022-11-19T13:05:16.411Z,14.02
2022-11-19T13:07:59.278Z,12.68
2022-11-19T13:10:38.309Z,13.35
2022-11-19T13:13:09.215Z,12.10
2022-11-19T13:15:44.267Z,13.13
2022-11-19T13:18:16.408Z,11.88
2022-11-19T13:20:54.798Z,10.98
2022-11-19T13:23:34.116Z,12.63
2022-11-19T13:26:13.167Z,13.95
2022-11-19T13:28:54.878Z,13.95
2022-11-19T13:31:42.924Z,12.30
2022-11-19T13:34:40.064Z,12.30
2022-11-19T13:37:42.000Z,13.43
2022-11-19T13:40:24.485Z,14.27
2022-11-19T13:43:30.976Z,13.25
2022-11-19T13:46:18.407Z,13.52
2022-11-19T13:49:09.759Z,13.98
2022-11-19T13:51:42.617Z,14.35
2022-11-19T13:54:19.450Z,15.68
2022-11-19T13:56:49.547Z,15.38
2022-11-19T13:59:38.275Z,17.63
2022-11-19T14:02:17.011Z,17.73
2022-11-19T14:04:46.855Z,16.85
2022-11-19T14:07:33.752Z,17.70
2022-11-19T14:10:37.693Z,15.48
2022-11-19T14:13:22.679Z,16.23
2022-11-19T14:16:37.068Z,16.45
2022-11-19T14:22:14.606Z,16.30
2022-11-19T14:25:10.405Z,15.38
2022-11-19T14:27:37.462Z,15.88
2022-11-19T14:30:15.744Z,16.23
2022-11-19T14:32:51.638Z,17.10
2022-11-19T14:35:23.655Z,16.67
2022-11-19T14:37:57.658Z,16.73
2022-11-19T14:40:24.441Z,16.02
2022-11-19T14:43:21.907Z,15.80
2022-11-19T14:46:08.813Z,14.88
2022-11-19T14:48:47.428Z,15.48
2022-11-19T14:51:39.126Z,15.93
2022-11-19T14:54:31.072Z,14.50
2022-11-19T14:57:16.394Z,15.10
2022-11-19T14:59:52.290Z,14.90
2022-11-19T15:02:33.221Z,14.98
2022-11-19T15:05:19.770Z,14.63
2022-11-19T15:08:12.220Z,14.82
2022-11-19T15:11:07.065Z,14.77
2022-11-19T15:13:40.958Z,15.65
2022-11-19T15:16:16.903Z,14.38
2022-11-19T15:18:43.647Z,14.93
2022-11-19T15:21:28.926Z,14.77
2022-11-19T15:23:55.741Z,15.38
2022-11-19T15:26:52.200Z,14.35
2022-11-19T15:29:25.880Z,15.18
2022-11-19T15:32:36.607Z,14.75
2022-11-19T15:35:36.242Z,15.25
2022-11-19T15:38:19.879Z,14.88
2022-11-19T15:40:48.600Z,14.52
2022-11-19T15:43:48.398Z,15.10
2022-11-19T15:46:22.190Z,14.43
2022-11-19T15:49:19.515Z,14.98
2022-11-19T15:52:17.730Z,14.05
2022-11-19T15:54:45.097Z,15.23
2022-11-19T15:57:17.979Z,14.18
2022-11-19T15:59:47.919Z,14.85
2022-11-19T16:02:38.508Z,14.77
2022-11-19T16:05:06.530Z,14.40
2022-11-19T16:07:33.749Z,14.90
2022-11-19T16:10:01.118Z,14.48
2022-11-19T16:12:48.732Z,15.13
2022-11-19T16:15:44.532Z,15.18
2022-11-19T16:18:16.607Z,15.88
2022-11-19T16:20:48.765Z,14.05
2022-11-19T16:23:21.132Z,15.45
2022-11-19T16:25:49.069Z,16.38
2022-11-19T16:28:30.619Z,15.40
2022-11-19T16:31:10.017Z,14.70
2022-11-19T16:33:37.661Z,14.93
2022-11-19T16:36:19.540Z,13.85
2022-11-19T16:38:51.790Z,14.45
2022-11-19T16:41:42.100Z,14.88
2022-11-19T16:44:34.472Z,13.55
2022-11-19T16:47:15.227Z,15.25
2022-11-19T16:49:49.255Z,14.88
2022-11-19T16:52:41.902Z,15.57
2022-11-19T16:55:34.042Z,15.60
2022-11-19T16:58:22.462Z,15.48
2022-11-19T17:00:53.395Z,14.93
2022-11-19T17:03:27.614Z,16.70
2022-11-19T17:05:56.313Z,15.23
2022-11-19T17:08:38.959Z,15.45
2022-11-19T17:11:42.446Z,15.10
2022-11-19T17:14:23.399Z,15.60
2022-11-19T17:16:53.292Z,15.13
2022-11-19T17:19:27.999Z,15.82
2022-11-19T17:21:57.547Z,15.15
2022-11-19T17:24:28.007Z,15.93
2022-11-19T17:26:55.511Z,16.10
2022-11-19T17:29:24.077Z,16.67
2022-11-19T17:31:55.652Z,14.52
2022-11-19T17:34:33.986Z,14.25
2022-11-19T17:37:03.726Z,16.60
2022-11-19T17:39:30.466Z,16.33
2022-11-19T17:42:15.637Z,15.73
2022-11-19T17:44:43.380Z,16.85
2022-11-19T17:47:21.912Z,16.45
2022-11-19T17:49:50.387Z,18.00
2022-11-19T17:52:25.726Z,16.63
2022-11-19T17:54:55.274Z,16.40
2022-11-19T17:57:22.235Z,17.77
2022-11-19T17:59:49.113Z,16.33
2022-11-19T18:02:20.452Z,17.35
2022-11-19T18:04:48.066Z,15.15
2022-11-19T18:07:15.354Z,16.02
2022-11-19T18:09:42.885Z,18.27
2022-11-19T18:12:16.567Z,15.60
2022-11-19T18:14:43.839Z,16.25
2022-11-19T18:17:15.450Z,16.13
2022-11-19T18:19:43.326Z,17.02
2022-11-19T18:22:18.429Z,16.77
2022-11-19T18:24:50.652Z,16.92
2022-11-19T18:27:17.805Z,16.45
2022-11-19T18:29:44.911Z,17.33
2022-11-19T18:32:15.360Z,17.58
2022-11-19T18:34:42.591Z,16.67
2022-11-19T18:37:09.415Z,16.30
2022-11-19T18:39:36.361Z,17.02
2022-11-19T18:42:03.627Z,17.30
2022-11-19T18:44:36.177Z,16.23
2022-11-19T18:47:08.505Z,15.82
2022-11-19T18:49:37.002Z,15.50
2022-11-19T18:52:07.885Z,16.50
2022-11-19T18:54:35.095Z,17.17
2022-11-19T18:57:02.477Z,15.45
2022-11-19T18:59:30.263Z,15.95
2022-11-19T19:01:57.395Z,16.90
2022-11-19T19:04:26.927Z,16.05
2022-11-19T19:06:53.717Z,16.70
2022-11-19T19:09:21.332Z,16.70
2022-11-19T19:12:12.956Z,17.27
2022-11-19T19:14:40.451Z,17.63
2022-11-19T19:17:07.244Z,15.50
2022-11-19T19:19:34.070Z,16.33
2022-11-19T19:22:01.018Z,16.77
2022-11-19T19:24:28.096Z,15.85
2022-11-19T19:26:55.292Z,17.08
2022-11-19T19:29:22.384Z,16.10
2022-11-19T19:31:49.640Z,16.17
2022-11-19T19:34:17.029Z,16.77
2022-11-19T19:36:47.661Z,16.58
2022-11-19T19:39:18.143Z,17.27
2022-11-19T19:41:45.027Z,16.75
2022-11-19T19:44:11.757Z,17.60
2022-11-19T19:46:38.498Z,17.27
2022-11-19T19:49:05.376Z,15.70
2022-11-19T19:51:32.927Z,15.93
2022-11-19T19:54:00.154Z,15.65
2022-11-19T19:56:29.387Z,16.75
2022-11-19T19:58:57.535Z,16.50
2022-11-19T20:01:27.272Z,18.45
2022-11-19T20:04:00.535Z,19.05
2022-11-19T20:08:54.548Z,19.02
2022-11-19T20:11:26.042Z,18.60
2022-11-19T20:13:54.952Z,19.15
2022-11-19T20:16:27.828Z,19.05
2022-11-19T20:18:55.568Z,20.15
2022-11-19T20:21:25.600Z,19.55
2022-11-19T20:23:52.728Z,19.38
2022-11-19T20:26:23.038Z,19.40
2022-11-19T20:28:56.277Z,18.92
2022-11-19T20:31:23.379Z,19.30
2022-11-19T20:33:58.186Z,20.55
2022-11-19T20:36:26.584Z,18.50
2022-11-19T20:38:53.863Z,18.55
2022-11-19T20:41:40.764Z,20.20
2022-11-19T20:44:22.611Z,19.20
2022-11-19T20:46:57.985Z,21.23
2022-11-19T20:49:29.384Z,19.48
2022-11-19T20:51:57.076Z,18.98
2022-11-19T20:54:25.093Z,19.05
2022-11-19T20:56:53.163Z,22.98
2022-11-19T20:59:21.062Z,21.00
2022-11-19T21:01:52.183Z,21.10
2022-11-19T21:04:20.701Z,20.30
2022-11-19T21:06:47.762Z,21.55
2022-11-19T21:09:15.975Z,19.50
2022-11-19T21:11:43.759Z,20.70
2022-11-19T21:14:10.809Z,21.65
2022-11-19T21:16:37.708Z,21.50
2022-11-19T21:19:05.865Z,21.40
2022-11-19T21:21:32.912Z,21.30
2022-11-19T21:23:59.817Z,20.23
2022-11-19T21:26:28.317Z,20.20
2022-11-19T21:28:57.323Z,21.88
2022-11-19T21:31:39.203Z,21.38
2022-11-19T21:34:11.585Z,19.45
2022-11-19T21:36:38.953Z,20.50
2022-11-19T21:39:06.609Z,19.63
2022-11-19T21:41:34.111Z,19.35
2022-11-19T21:44:01.893Z,20.52
2022-11-19T21:46:30.207Z,20.80
2022-11-19T21:48:57.031Z,20.38
2022-11-19T21:51:25.189Z,20.65
2022-11-19T21:53:57.629Z,20.70
2022-11-19T21:56:26.143Z,21.27
2022-11-19T21:58:53.010Z,20.05
2022-11-19T22:01:20.062Z,20.45
2022-11-19T22:03:47.038Z,21.10
2022-11-19T22:06:13.825Z,19.45
2022-11-19T22:08:42.184Z,19.13
2022-11-19T22:11:29.946Z,19.60
2022-11-19T22:14:02.861Z,19.05
2022-11-19T22:16:31.005Z,18.80
2022-11-19T22:18:58.087Z,21.42
2022-11-19T22:21:25.713Z,20.30
2022-11-19T22:23:53.713Z,20.27
2022-11-19T22:26:20.641Z,18.95
2022-11-19T22:28:47.476Z,20.77
2022-11-19T22:31:15.556Z,18.80
2022-11-19T22:33:42.477Z,20.58
2022-11-19T22:36:11.037Z,20.52
2022-11-19T22:38:39.020Z,19.85
2022-11-19T22:41:12.547Z,19.95
2022-11-19T22:43:40.550Z,19.27
2022-11-19T22:46:09.390Z,20.25
2022-11-19T22:48:39.299Z,18.60
2022-11-19T22:51:09.017Z,18.02
2022-11-19T22:53:37.329Z,20.25
2022-11-19T22:56:06.483Z,18.65
2022-11-19T22:58:34.081Z,19.10
2022-11-19T23:01:01.444Z,20.67
2022-11-19T23:03:28.367Z,20.23
2022-11-19T23:05:56.665Z,19.17
2022-11-19T23:08:23.874Z,20.63
2022-11-19T23:10:58.378Z,20.55
2022-11-19T23:13:34.285Z,20.42
2022-11-19T23:16:18.917Z,20.42
2022-11-19T23:18:51.669Z,19.60
2022-11-19T23:21:21.896Z,21.17
2022-11-19T23:23:49.372Z,19.92
2022-11-19T23:26:18.217Z,19.80
2022-11-19T23:28:45.883Z,20.75
2022-11-19T23:31:17.411Z,21.60
2022-11-19T23:33:44.944Z,19.30
2022-11-19T23:36:17.081Z,20.60
2022-11-19T23:38:44.199Z,20.35
2022-11-19T23:41:13.694Z,19.15
2022-11-19T23:43:41.087Z,20.13
2022-11-19T23:46:09.187Z,20.15
2022-11-19T23:48:37.894Z,21.20
2022-11-19T23:51:07.500Z,19.95
2022-11-19T23:53:34.462Z,20.73
2022-11-19T23:56:01.501Z,21.70
2022-11-19T23:58:28.362Z,19.55
